createdAt,value
2022-10-09T00:01:14.254Z,24.12
2022-10-09T00:03:43.735Z,24.06
2022-10-09T00:06:13.877Z,24.03
2022-10-09T00:08:43.489Z,24.08
2022-10-09T00:11:14.715Z,24.07
2022-10-09T00:13:42.196Z,24.09
2022-10-09T00:16:11.832Z,24.10
2022-10-09T00:18:39.657Z,24.06
2022-10-09T00:21:15.202Z,24.06
2022-10-09T00:23:42.291Z,24.06
2022-10-09T00:26:09.423Z,24.07
2022-10-09T00:28:38.735Z,24.06
2022-10-09T00:31:07.671Z,24.05
2022-10-09T00:33:35.521Z,24.05
2022-10-09T00:36:07.808Z,24.05
2022-10-09T00:38:35.417Z,24.03
2022-10-09T00:41:02.455Z,24.05
2022-10-09T00:43:46.787Z,24.05
2022-10-09T00:46:22.935Z,24.07
2022-10-09T00:49:05.113Z,24.05
2022-10-09T00:51:34.507Z,24.06
2022-10-09T00:54:07.921Z,24.03
2022-10-09T00:56:35.745Z,24.04
2022-10-09T00:59:03.691Z,24.06
2022-10-09T01:01:30.807Z,24.06
2022-10-09T01:03:57.854Z,24.05
2022-10-09T01:06:57.137Z,24.05
2022-10-09T01:09:29.389Z,24.01
2022-10-09T01:12:01.080Z,23.99
2022-10-09T01:14:42.290Z,23.93
2022-10-09T01:17:29.775Z,23.93
2022-10-09T01:20:23.401Z,23.97
2022-10-09T01:23:07.104Z,23.98
2022-10-09T01:25:49.659Z,24.00
2022-10-09T01:28:18.552Z,24.01
2022-10-09T01:30:46.735Z,23.99
2022-10-09T01:33:15.554Z,23.99
2022-10-09T01:35:45.092Z,24.01
2022-10-09T01:38:12.083Z,23.99
2022-10-09T01:40:39.743Z,24.02
2022-10-09T01:43:06.716Z,24.02
2022-10-09T01:45:43.550Z,24.02
2022-10-09T01:48:15.409Z,23.99
2022-10-09T01:50:46.186Z,23.93
2022-10-09T01:53:19.716Z,23.87
2022-10-09T01:56:13.217Z,23.82
2022-10-09T01:58:53.344Z,23.80
2022-10-09T02:01:32.583Z,23.84
2022-10-09T02:04:01.910Z,23.87
2022-10-09T02:06:31.494Z,23.91
2022-10-09T02:08:59.474Z,23.93
2022-10-09T02:11:30.248Z,23.93
2022-10-09T02:13:58.809Z,23.92
2022-10-09T02:16:43.777Z,23.95
2022-10-09T02:19:29.827Z,23.93
2022-10-09T02:22:30.856Z,23.92
2022-10-09T02:25:00.728Z,23.93
2022-10-09T02:27:29.095Z,23.95
2022-10-09T02:29:56.513Z,23.95
2022-10-09T02:32:23.944Z,23.95
2022-10-09T02:34:51.709Z,23.93
2022-10-09T02:37:18.805Z,23.95
2022-10-09T02:39:45.839Z,23.92
2022-10-09T02:42:12.851Z,23.88
2022-10-09T02:44:39.903Z,23.87
2022-10-09T02:47:06.960Z,23.88
2022-10-09T02:49:35.742Z,23.90
2022-10-09T02:52:02.690Z,23.91
2022-10-09T02:54:29.751Z,23.93
2022-10-09T02:56:56.728Z,23.95
2022-10-09T02:59:23.739Z,23.98
2022-10-09T03:01:50.864Z,23.99
2022-10-09T03:04:17.943Z,24.00
2022-10-09T03:06:44.924Z,24.00
2022-10-09T03:09:11.938Z,23.98
2022-10-09T03:11:38.947Z,23.95
2022-10-09T03:14:05.976Z,23.95
2022-10-09T03:16:33.070Z,23.96
2022-10-09T03:19:00.390Z,23.99
2022-10-09T03:21:28.445Z,23.99
2022-10-09T03:23:56.112Z,24.00
2022-10-09T03:26:25.503Z,24.01
2022-10-09T03:28:54.117Z,24.02
2022-10-09T03:31:46.917Z,24.02
2022-10-09T03:34:12.306Z,24.02
2022-10-09T03:36:39.825Z,24.00
2022-10-09T03:39:06.801Z,24.00
2022-10-09T03:41:33.981Z,24.01
2022-10-09T03:44:01.170Z,24.00
2022-10-09T03:46:28.667Z,24.02
2022-10-09T03:48:55.829Z,23.99
2022-10-09T03:51:22.831Z,23.95
2022-10-09T03:53:49.821Z,23.95
2022-10-09T03:56:16.938Z,23.97
2022-10-09T03:58:43.914Z,23.91
2022-10-09T04:01:10.950Z,23.89
2022-10-09T04:03:38.087Z,23.89
2022-10-09T04:06:05.361Z,23.89
2022-10-09T04:08:32.339Z,23.90
2022-10-09T04:11:00.500Z,23.89
2022-10-09T04:13:27.877Z,23.90
2022-10-09T04:15:55.107Z,23.88
2022-10-09T04:18:22.730Z,23.89
2022-10-09T04:20:54.986Z,23.89
2022-10-09T04:23:25.116Z,23.90
2022-10-09T04:25:58.541Z,23.93
2022-10-09T04:28:29.743Z,23.92
2022-10-09T04:31:00.193Z,23.88
2022-10-09T04:33:27.619Z,23.87
2022-10-09T04:35:55.477Z,23.86
2022-10-09T04:38:23.019Z,23.85
2022-10-09T04:41:04.681Z,23.85
2022-10-09T04:43:32.574Z,23.83
2022-10-09T04:45:59.646Z,23.83
2022-10-09T04:48:26.777Z,23.84
2022-10-09T04:50:53.715Z,23.83
2022-10-09T04:53:20.889Z,23.84
2022-10-09T04:55:48.035Z,23.85
2022-10-09T04:58:15.051Z,23.85
2022-10-09T05:00:44.194Z,23.86
2022-10-09T05:03:12.098Z,23.85
2022-10-09T05:05:39.341Z,23.81
2022-10-09T05:08:06.660Z,23.79
2022-10-09T05:10:33.708Z,23.77
2022-10-09T05:13:00.809Z,23.78
2022-10-09T05:15:27.865Z,23.79
2022-10-09T05:17:54.951Z,23.80
2022-10-09T05:20:22.169Z,23.81
2022-10-09T05:22:49.588Z,23.81
2022-10-09T05:25:17.129Z,23.79
2022-10-09T05:27:44.097Z,23.82
2022-10-09T05:30:11.809Z,23.83
2022-10-09T05:32:38.861Z,23.82
2022-10-09T05:35:06.291Z,23.81
2022-10-09T05:37:33.278Z,23.80
2022-10-09T05:40:00.321Z,23.80
2022-10-09T05:42:27.383Z,23.82
2022-10-09T05:44:54.415Z,23.81
2022-10-09T05:47:21.792Z,23.80
2022-10-09T05:49:48.760Z,23.79
2022-10-09T05:52:15.743Z,23.71
2022-10-09T05:54:43.130Z,23.67
2022-10-09T05:57:10.400Z,23.67
2022-10-09T05:59:37.379Z,23.70
2022-10-09T06:02:04.857Z,23.69
2022-10-09T06:04:31.906Z,23.69
2022-10-09T06:06:58.908Z,23.70
2022-10-09T06:09:26.991Z,23.69
2022-10-09T06:11:55.541Z,23.69
2022-10-09T06:14:22.882Z,23.70
2022-10-09T06:16:50.827Z,23.67
2022-10-09T06:19:19.571Z,23.62
2022-10-09T06:21:47.509Z,23.66
2022-10-09T06:24:24.462Z,23.70
2022-10-09T06:26:55.041Z,23.70
2022-10-09T06:29:22.242Z,23.71
2022-10-09T06:31:49.222Z,23.73
2022-10-09T06:34:16.260Z,23.70
2022-10-09T06:36:43.429Z,23.73
2022-10-09T06:39:10.905Z,23.74
2022-10-09T06:41:37.918Z,23.75
2022-10-09T06:44:07.653Z,23.73
2022-10-09T06:46:41.109Z,23.73
2022-10-09T06:49:10.301Z,23.75
2022-10-09T06:51:37.842Z,23.78
2022-10-09T06:54:10.667Z,23.80
2022-10-09T06:56:37.862Z,23.76
2022-10-09T06:59:07.607Z,23.77
2022-10-09T07:01:35.121Z,23.76
2022-10-09T07:04:07.292Z,23.78
2022-10-09T07:06:38.776Z,23.76
2022-10-09T07:09:08.849Z,23.75
2022-10-09T07:11:38.466Z,23.79
2022-10-09T07:14:07.666Z,23.80
2022-10-09T07:16:37.801Z,23.82
2022-10-09T07:19:07.889Z,23.85
2022-10-09T07:21:36.085Z,23.84
2022-10-09T07:24:04.453Z,23.84
2022-10-09T07:26:33.886Z,23.86
2022-10-09T07:29:01.294Z,23.88
2022-10-09T07:31:28.400Z,23.89
2022-10-09T07:33:57.142Z,23.90
2022-10-09T07:36:24.889Z,23.93
2022-10-09T07:38:53.577Z,23.94
2022-10-09T07:41:21.869Z,23.93
2022-10-09T07:43:49.082Z,23.94
2022-10-09T07:46:18.775Z,23.97
2022-10-09T07:48:46.402Z,24.01
2022-10-09T07:51:22.423Z,24.04
2022-10-09T07:53:49.938Z,24.04
2022-10-09T07:56:22.230Z,24.04
2022-10-09T07:58:50.799Z,24.04
2022-10-09T08:01:20.386Z,24.03
2022-10-09T08:03:48.469Z,24.04
2022-10-09T08:06:16.308Z,24.03
2022-10-09T08:08:43.670Z,24.06
2022-10-09T08:11:16.093Z,24.08
2022-10-09T08:13:44.143Z,24.11
2022-10-09T08:16:11.619Z,24.15
2022-10-09T08:18:38.796Z,24.19
2022-10-09T08:21:08.613Z,24.21
2022-10-09T08:23:36.062Z,24.27
2022-10-09T08:26:04.323Z,24.30
2022-10-09T08:28:32.039Z,24.32
2022-10-09T08:30:59.153Z,24.30
2022-10-09T08:33:26.328Z,24.30
2022-10-09T08:35:54.674Z,24.30
2022-10-09T08:38:45.707Z,24.27
2022-10-09T08:41:17.668Z,24.21
2022-10-09T08:43:53.414Z,24.16
2022-10-09T08:46:26.944Z,24.14
2022-10-09T08:48:55.250Z,24.16
2022-10-09T08:51:29.948Z,24.21
2022-10-09T08:54:20.249Z,24.28
2022-10-09T08:56:49.967Z,24.34
2022-10-09T08:59:16.971Z,24.39
2022-10-09T09:02:04.126Z,24.43
2022-10-09T09:05:03.303Z,24.40
2022-10-09T09:08:08.369Z,24.40
2022-10-09T09:10:42.021Z,24.32
2022-10-09T09:13:18.013Z,24.25
2022-10-09T09:15:54.939Z,24.17
2022-10-09T09:18:22.493Z,24.15
2022-10-09T09:20:58.828Z,24.12
2022-10-09T09:23:33.075Z,24.16
2022-10-09T09:26:02.151Z,24.23
2022-10-09T09:28:32.185Z,24.30
2022-10-09T09:31:06.469Z,24.29
2022-10-09T09:33:44.603Z,24.31
2022-10-09T09:36:24.071Z,24.37
2022-10-09T09:39:36.256Z,24.40
2022-10-09T09:41:41.359Z,24.41
2022-10-09T09:44:11.142Z,24.37
2022-10-09T09:46:39.855Z,24.32
2022-10-09T09:49:22.079Z,24.35
2022-10-09T09:51:50.125Z,24.30
2022-10-09T09:54:21.864Z,24.28
2022-10-09T09:59:40.452Z,24.27
2022-10-09T10:02:20.237Z,24.32
2022-10-09T10:05:02.083Z,24.33
2022-10-09T10:07:37.666Z,24.38
2022-10-09T10:10:18.744Z,24.43
2022-10-09T10:12:58.244Z,24.46
2022-10-09T10:15:30.757Z,24.50
2022-10-09T10:18:17.714Z,24.54
2022-10-09T10:20:51.313Z,24.46
2022-10-09T10:23:38.350Z,24.42
2022-10-09T10:26:40.217Z,24.36
2022-10-09T10:29:20.085Z,24.42
2022-10-09T10:32:22.762Z,24.47
2022-10-09T10:35:10.704Z,24.55
2022-10-09T10:37:50.705Z,24.53
2022-10-09T10:40:30.734Z,24.55
2022-10-09T10:43:06.436Z,24.63
2022-10-09T10:46:00.561Z,24.67
2022-10-09T10:48:37.258Z,24.69
2022-10-09T10:51:36.103Z,24.71
2022-10-09T10:54:36.714Z,24.75
2022-10-09T10:57:35.300Z,24.78
2022-10-09T11:00:06.648Z,24.73
2022-10-09T11:02:55.729Z,24.83
2022-10-09T11:05:27.909Z,24.88
2022-10-09T11:08:34.478Z,24.93
2022-10-09T11:11:40.444Z,24.90
2022-10-09T11:14:22.203Z,24.86
2022-10-09T11:17:26.743Z,24.84
2022-10-09T11:20:02.578Z,24.80
2022-10-09T11:22:51.204Z,24.73
2022-10-09T11:25:21.578Z,24.69
2022-10-09T11:28:15.275Z,24.68
2022-10-09T11:30:50.388Z,24.73
2022-10-09T11:33:17.309Z,24.71
2022-10-09T11:35:53.211Z,24.72
2022-10-09T11:38:48.121Z,24.75
2022-10-09T11:41:18.520Z,24.78
2022-10-09T11:44:10.462Z,24.76
2022-10-09T11:47:01.777Z,24.74
2022-10-09T11:49:51.024Z,24.74
2022-10-09T11:52:28.674Z,24.77
2022-10-09T11:54:55.702Z,24.75
2022-10-09T11:57:29.973Z,24.73
2022-10-09T12:00:07.236Z,24.74
2022-10-09T12:02:35.031Z,24.71
2022-10-09T12:05:02.208Z,24.72
2022-10-09T12:07:36.079Z,24.77
2022-10-09T12:10:07.924Z,24.72
2022-10-09T12:12:38.001Z,24.69
2022-10-09T12:15:36.238Z,24.72
2022-10-09T12:18:16.397Z,24.75
2022-10-09T12:20:48.341Z,24.70
2022-10-09T12:23:26.650Z,24.71
2022-10-09T12:25:55.361Z,24.70
2022-10-09T12:28:38.164Z,24.62
2022-10-09T12:31:16.144Z,24.64
2022-10-09T12:33:48.241Z,24.67
2022-10-09T12:36:27.135Z,24.64
2022-10-09T12:38:54.966Z,24.61
2022-10-09T12:41:28.069Z,24.54
2022-10-09T12:43:57.160Z,24.51
2022-10-09T12:46:36.863Z,24.54
2022-10-09T12:49:14.566Z,24.50
2022-10-09T12:51:41.637Z,24.47
2022-10-09T12:54:10.191Z,24.41
2022-10-09T12:56:39.112Z,24.43
2022-10-09T12:59:11.597Z,24.48
2022-10-09T13:01:41.167Z,24.45
2022-10-09T13:04:11.154Z,24.43
2022-10-09T13:06:46.794Z,24.39
2022-10-09T13:09:38.809Z,24.34
2022-10-09T13:12:15.919Z,24.34
2022-10-09T13:14:53.904Z,24.26
2022-10-09T13:17:37.724Z,24.27
2022-10-09T13:20:16.862Z,24.32
2022-10-09T13:22:57.605Z,24.30
2022-10-09T13:25:27.653Z,24.30
2022-10-09T13:27:54.890Z,24.23
2022-10-09T13:30:22.035Z,24.22
2022-10-09T13:32:49.938Z,24.22
2022-10-09T13:35:18.005Z,24.24
2022-10-09T13:37:45.176Z,24.25
2022-10-09T13:40:18.187Z,24.27
2022-10-09T13:42:54.360Z,24.27
2022-10-09T13:45:21.738Z,24.28
2022-10-09T13:47:49.084Z,24.26
2022-10-09T13:50:18.126Z,24.27
2022-10-09T13:52:45.145Z,24.27
2022-10-09T13:55:12.670Z,24.28
2022-10-09T13:57:39.707Z,24.26
2022-10-09T14:00:07.738Z,24.26
2022-10-09T14:02:34.800Z,24.34
2022-10-09T14:05:01.864Z,24.39
2022-10-09T14:07:28.819Z,24.42
2022-10-09T14:09:55.837Z,24.36
2022-10-09T14:12:22.807Z,24.35
2022-10-09T14:14:49.820Z,24.36
2022-10-09T14:17:16.845Z,24.35
2022-10-09T14:19:43.886Z,24.31
2022-10-09T14:22:11.787Z,24.28
2022-10-09T14:24:38.804Z,24.32
2022-10-09T14:27:05.870Z,24.32
2022-10-09T14:29:33.040Z,24.32
2022-10-09T14:31:59.994Z,24.38
2022-10-09T14:34:27.017Z,24.44
2022-10-09T14:36:54.066Z,24.50
2022-10-09T14:39:21.088Z,24.54
2022-10-09T14:41:48.133Z,24.56
2022-10-09T14:44:15.192Z,24.58
2022-10-09T14:46:42.190Z,24.63
2022-10-09T14:49:11.180Z,24.70
2022-10-09T14:51:40.037Z,24.73
2022-10-09T14:54:08.378Z,24.67
2022-10-09T14:56:35.932Z,24.64
2022-10-09T14:59:03.423Z,24.60
2022-10-09T15:01:30.564Z,24.56
2022-10-09T15:04:00.259Z,24.52
2022-10-09T15:06:28.417Z,24.47
2022-10-09T15:09:03.196Z,24.42
2022-10-09T15:11:32.475Z,24.39
2022-10-09T15:13:59.502Z,24.36
2022-10-09T15:16:27.112Z,24.38
2022-10-09T15:18:55.250Z,24.35
2022-10-09T15:21:24.834Z,24.33
2022-10-09T15:23:55.125Z,24.32
2022-10-09T15:26:22.878Z,24.29
2022-10-09T15:28:50.094Z,24.29
2022-10-09T15:31:24.487Z,24.31
2022-10-09T15:33:52.985Z,24.36
2022-10-09T15:36:20.977Z,24.36
2022-10-09T15:38:48.610Z,24.31
2022-10-09T15:41:27.544Z,24.29
2022-10-09T15:43:57.246Z,24.27
2022-10-09T15:46:24.911Z,24.27
2022-10-09T15:48:52.086Z,24.31
2022-10-09T15:51:19.918Z,24.31
2022-10-09T15:53:48.637Z,24.33
2022-10-09T15:56:18.313Z,24.34
2022-10-09T15:58:45.334Z,24.31
2022-10-09T16:01:14.278Z,24.31
2022-10-09T16:03:41.551Z,24.26
2022-10-09T16:06:12.185Z,24.20
2022-10-09T16:08:39.887Z,24.18
2022-10-09T16:13:43.991Z,24.22
2022-10-09T16:16:15.431Z,24.19
2022-10-09T16:18:42.480Z,24.19
2022-10-09T16:21:15.466Z,24.19
2022-10-09T16:23:43.621Z,24.16
2022-10-09T16:26:11.669Z,24.17
2022-10-09T16:28:38.842Z,24.14
2022-10-09T16:31:06.572Z,24.16
2022-10-09T16:33:33.625Z,24.15
2022-10-09T16:36:12.022Z,24.11
2022-10-09T16:38:40.815Z,24.07
2022-10-09T16:41:13.366Z,24.05
2022-10-09T16:43:42.723Z,24.03
2022-10-09T16:46:27.435Z,24.03
2022-10-09T16:48:55.952Z,23.95
2022-10-09T16:51:28.351Z,23.97
2022-10-09T16:53:58.101Z,24.00
2022-10-09T16:56:27.695Z,23.98
2022-10-09T16:58:59.541Z,23.93
2022-10-09T17:01:27.763Z,23.90
2022-10-09T17:03:56.326Z,23.92
2022-10-09T17:06:24.690Z,23.92
2022-10-09T17:08:53.442Z,23.91
2022-10-09T17:11:21.329Z,23.88
2022-10-09T17:13:48.822Z,23.89
2022-10-09T17:16:19.534Z,23.89
2022-10-09T17:18:48.319Z,23.85
2022-10-09T17:21:17.326Z,23.86
2022-10-09T17:23:45.576Z,23.82
2022-10-09T17:26:15.368Z,23.80
2022-10-09T17:28:43.030Z,23.75
2022-10-09T17:31:14.492Z,23.69
2022-10-09T17:33:43.280Z,23.62
2022-10-09T17:36:11.606Z,23.58
2022-10-09T17:38:38.741Z,23.56
2022-10-09T17:41:11.267Z,23.54
2022-10-09T17:43:39.121Z,23.49
2022-10-09T17:46:06.718Z,23.46
2022-10-09T17:48:35.020Z,23.46
2022-10-09T17:51:06.433Z,23.48
2022-10-09T17:53:33.387Z,23.45
2022-10-09T17:56:04.177Z,23.44
2022-10-09T17:58:31.695Z,23.46
2022-10-09T18:00:58.928Z,23.45
2022-10-09T18:03:25.967Z,23.46
2022-10-09T18:05:53.046Z,23.46
2022-10-09T18:08:20.240Z,23.47
2022-10-09T18:10:47.407Z,23.43
2022-10-09T18:13:14.573Z,23.42
2022-10-09T18:15:44.038Z,23.40
2022-10-09T18:18:11.693Z,23.41
2022-10-09T18:20:40.178Z,23.40
2022-10-09T18:23:08.466Z,23.42
2022-10-09T18:25:36.201Z,23.37
2022-10-09T18:28:03.234Z,23.38
2022-10-09T18:30:30.393Z,23.41
2022-10-09T18:32:57.367Z,23.37
2022-10-09T18:35:25.822Z,23.36
2022-10-09T18:37:52.924Z,23.39
2022-10-09T18:40:20.271Z,23.39
2022-10-09T18:42:47.733Z,23.41
2022-10-09T18:45:16.445Z,23.46
2022-10-09T18:47:44.339Z,23.51
2022-10-09T18:50:13.812Z,23.51
2022-10-09T18:52:42.594Z,23.53
2022-10-09T18:55:12.703Z,23.54
2022-10-09T18:57:40.949Z,23.53
2022-10-09T19:00:08.912Z,23.48
2022-10-09T19:02:36.064Z,23.49
2022-10-09T19:05:03.567Z,23.48
2022-10-09T19:07:30.700Z,23.46
2022-10-09T19:09:57.795Z,23.44
2022-10-09T19:12:25.314Z,23.45
2022-10-09T19:14:52.568Z,23.43
2022-10-09T19:17:19.946Z,23.46
2022-10-09T19:19:47.010Z,23.51
2022-10-09T19:22:16.431Z,23.53
2022-10-09T19:24:45.363Z,23.55
2022-10-09T19:27:12.511Z,23.58
2022-10-09T19:29:39.571Z,23.58
2022-10-09T19:32:08.058Z,23.59
2022-10-09T19:34:35.067Z,23.54
2022-10-09T19:37:02.866Z,23.58
2022-10-09T19:39:30.016Z,23.62
2022-10-09T19:41:56.980Z,23.66
2022-10-09T19:44:24.062Z,23.68
2022-10-09T19:46:51.259Z,23.74
2022-10-09T19:49:19.609Z,23.78
2022-10-09T19:51:46.654Z,23.79
2022-10-09T19:54:13.731Z,23.78
2022-10-09T19:56:40.772Z,23.76
2022-10-09T19:59:09.334Z,23.78
2022-10-09T20:01:37.952Z,23.80
2022-10-09T20:04:08.249Z,23.80
2022-10-09T20:06:40.910Z,23.79
2022-10-09T20:09:09.497Z,23.82
2022-10-09T20:11:37.925Z,23.82
2022-10-09T20:14:05.473Z,23.81
2022-10-09T20:16:33.843Z,23.80
2022-10-09T20:19:01.822Z,23.75
2022-10-09T20:21:31.144Z,23.73
2022-10-09T20:24:00.499Z,23.75
2022-10-09T20:26:28.316Z,23.75
2022-10-09T20:28:55.567Z,23.73
2022-10-09T20:31:24.731Z,23.74
2022-10-09T20:33:52.641Z,23.72
2022-10-09T20:36:24.845Z,23.72
2022-10-09T20:38:51.938Z,23.71
2022-10-09T20:41:19.099Z,23.74
2022-10-09T20:43:50.827Z,23.80
2022-10-09T20:46:17.908Z,23.80
2022-10-09T20:48:45.398Z,23.79
2022-10-09T20:51:12.401Z,23.82
2022-10-09T20:53:39.528Z,23.85
2022-10-09T20:56:09.697Z,23.88
2022-10-09T20:58:36.830Z,23.89
2022-10-09T21:01:06.291Z,23.93
2022-10-09T21:03:34.204Z,23.94
2022-10-09T21:06:06.027Z,23.95
2022-10-09T21:08:33.408Z,23.99
2022-10-09T21:11:00.542Z,24.01
2022-10-09T21:13:27.575Z,24.04
2022-10-09T21:15:54.747Z,24.05
2022-10-09T21:18:21.902Z,24.03
2022-10-09T21:20:49.757Z,24.00
2022-10-09T21:23:18.805Z,23.95
2022-10-09T21:25:51.221Z,23.90
2022-10-09T21:28:22.267Z,23.93
2022-10-09T21:30:49.652Z,23.94
2022-10-09T21:33:18.289Z,23.95
2022-10-09T21:35:48.490Z,23.93
2022-10-09T21:38:18.084Z,23.95
2022-10-09T21:40:46.432Z,23.97
2022-10-09T21:43:14.071Z,24.01
2022-10-09T21:45:41.674Z,24.05
2022-10-09T21:48:08.807Z,24.02
2022-10-09T21:50:36.979Z,23.99
2022-10-09T21:53:04.568Z,24.01
2022-10-09T21:55:31.882Z,24.03
2022-10-09T21:57:58.994Z,24.00
2022-10-09T22:00:25.982Z,23.90
2022-10-09T22:02:53.455Z,23.85
2022-10-09T22:05:20.613Z,23.82
2022-10-09T22:07:47.537Z,23.83
2022-10-09T22:10:14.552Z,23.82
2022-10-09T22:12:41.653Z,23.81
2022-10-09T22:15:08.944Z,23.74
2022-10-09T22:17:35.919Z,23.63
2022-10-09T22:20:03.168Z,23.62
2022-10-09T22:22:30.163Z,23.63
2022-10-09T22:24:57.116Z,23.60
2022-10-09T22:27:24.095Z,23.59
2022-10-09T22:29:51.231Z,23.58
2022-10-09T22:32:18.221Z,23.60
2022-10-09T22:34:45.184Z,23.57
2022-10-09T22:37:12.187Z,23.56
2022-10-09T22:39:39.255Z,23.47
2022-10-09T22:42:06.232Z,23.34
2022-10-09T22:44:33.201Z,23.24
2022-10-09T22:47:00.324Z,23.31
2022-10-09T22:49:27.844Z,23.41
2022-10-09T22:51:54.896Z,23.48
2022-10-09T22:54:22.454Z,23.54
2022-10-09T22:56:49.498Z,23.57
2022-10-09T22:59:21.292Z,23.51
2022-10-09T23:01:55.130Z,23.55
2022-10-09T23:04:23.372Z,23.61
2022-10-09T23:06:52.378Z,23.64
2022-10-09T23:09:22.271Z,23.69
2022-10-09T23:11:49.598Z,23.72
2022-10-09T23:14:16.664Z,23.74
2022-10-09T23:16:43.938Z,23.74
2022-10-09T23:19:11.534Z,23.72
2022-10-09T23:21:40.915Z,23.75
2022-10-09T23:24:09.368Z,23.75
2022-10-09T23:26:46.333Z,23.76
2022-10-09T23:29:17.318Z,23.78
2022-10-09T23:31:45.110Z,23.79
2022-10-09T23:34:12.449Z,23.80
2022-10-09T23:36:39.528Z,23.77
2022-10-09T23:39:07.373Z,23.77
2022-10-09T23:41:34.781Z,23.79
2022-10-09T23:44:01.912Z,23.82
2022-10-09T23:46:31.878Z,23.82
2022-10-09T23:48:59.171Z,23.82
2022-10-09T23:51:27.188Z,23.80
2022-10-09T23:53:54.465Z,23.78
2022-10-09T23:56:39.597Z,23.81
2022-10-09T23:59:07.427Z,23.83
